Time,TemperatureF,DewpointF,PressureIn,WindDirection,WindDirectionDegrees,WindSpeedMPH,WindSpeedGustMPH,Humidity,HourlyPrecipIn,Conditions,Clouds,dailyrainin,SoftwareType,DateUTC
2013-01-28 00:01:00,32.5,28.5,30.01,SE,124,7.4,20.1,85,0.00,,,0.00,VWS V14.01,2013-01-28 05:01:00,
2013-01-28 00:02:00,32.5,28.5,30.01,SSE,148,8.1,13.4,85,0.00,,,0.00,VWS V14.01,2013-01-28 05:02:00,
2013-01-28 00:05:00,32.5,28.5,30.01,SSE,153,4.7,10.1,85,0.00,,,0.00,VWS V14.01,2013-01-28 05:05:00,
2013-01-28 00:06:00,32.5,28.5,30.01,SSE,153,4.7,10.1,85,0.00,,,0.00,VWS V14.01,2013-01-28 05:06:00,
2013-01-28 00:11:00,32.5,28.5,30.01,SSE,156,8.7,14.5,85,0.00,,,0.00,VWS V14.01,2013-01-28 05:11:00,
2013-01-28 00:16:00,32.5,28.5,30.01,SSE,156,8.7,14.5,85,0.00,,,0.00,VWS V14.01,2013-01-28 05:16:00,
2013-01-28 00:22:00,32.7,28.7,30.01,SSE,156,8.7,14.5,85,0.00,,,0.00,VWS V14.01,2013-01-28 05:22:00,
2013-01-28 00:27:00,32.7,28.7,30.01,SSE,156,8.7,14.5,85,0.00,,,0.00,VWS V14.01,2013-01-28 05:27:00,
2013-01-28 00:32:00,32.7,28.7,30.01,SSE,156,8.7,14.5,85,0.00,,,0.00,VWS V14.01,2013-01-28 05:32:00,
2013-01-28 00:38:00,32.9,28.9,30.01,SSE,153,5.4,10.1,85,0.00,,,0.00,VWS V14.01,2013-01-28 05:38:00,
2013-01-28 00:43:00,32.9,29.2,30.01,SE,143,6.0,10.1,86,0.00,,,0.00,VWS V14.01,2013-01-28 05:43:00,
2013-01-28 00:57:00,32.9,29.2,30.01,SE,136,6.0,12.3,86,0.00,,,0.00,VWS V14.01,2013-01-28 05:57:00,
2013-01-28 01:02:00,33.1,29.6,30.01,SE,134,8.7,14.5,87,0.00,,,0.00,VWS V14.01,2013-01-28 06:02:00,
2013-01-28 01:08:00,33.1,29.6,30.01,South,169,8.7,14.5,87,0.00,,,0.00,VWS V14.01,2013-01-28 06:08:00,
2013-01-28 01:13:00,33.1,29.6,29.98,SE,128,6.0,12.3,87,0.00,,,0.00,VWS V14.01,2013-01-28 06:13:00,
2013-01-28 01:18:00,33.3,30.1,29.98,SE,135,7.4,19.0,88,0.00,,,0.00,VWS V14.01,2013-01-28 06:18:00,
2013-01-28 01:24:00,33.3,30.1,29.98,SSE,148,15.1,25.2,88,0.00,,,0.00,VWS V14.01,2013-01-28 06:24:00,
2013-01-28 01:29:00,33.3,30.1,29.98,SW,233,6.0,13.4,88,0.00,,,0.00,VWS V14.01,2013-01-28 06:29:00,
2013-01-28 01:34:00,33.3,30.1,29.98,South,182,7.4,12.3,88,0.00,,,0.00,VWS V14.01,2013-01-28 06:34:00,
2013-01-28 01:39:00,33.4,30.5,29.98,SE,129,9.4,15.7,89,0.00,,,0.00,VWS V14.01,2013-01-28 06:39:00,
2013-01-28 01:44:00,33.6,30.7,29.98,SW,231,7.4,16.8,89,0.00,,,0.00,VWS V14.01,2013-01-28 06:44:00,
2013-01-28 01:49:00,33.4,30.5,29.98,SE,144,8.7,14.5,89,0.00,,,0.00,VWS V14.01,2013-01-28 06:49:00,
2013-01-28 01:54:00,33.6,30.7,29.98,SW,221,5.4,14.5,89,0.00,,,0.00,VWS V14.01,2013-01-28 06:54:00,
2013-01-28 01:59:00,33.6,31.0,29.98,SE,127,7.4,13.4,90,0.00,,,0.00,VWS V14.01,2013-01-28 06:59:00,
2013-01-28 02:04:00,33.6,31.0,29.98,ESE,119,6.0,10.1,90,0.00,,,0.00,VWS V14.01,2013-01-28 07:04:00,
2013-01-28 02:09:00,33.8,30.9,29.98,South,170,5.4,8.9,89,0.00,,,0.00,VWS V14.01,2013-01-28 07:09:00,
2013-01-28 02:14:00,33.8,30.9,29.98,SE,128,4.7,7.8,89,0.00,,,0.00,VWS V14.01,2013-01-28 07:14:00,
2013-01-28 02:19:00,33.8,31.2,29.98,SE,135,6.0,12.3,90,0.00,,,0.00,VWS V14.01,2013-01-28 07:19:00,
2013-01-28 02:26:00,34.0,31.4,29.95,SSW,198,4.0,8.9,90,0.00,,,0.00,VWS V14.01,2013-01-28 07:26:00,
2013-01-28 02:32:00,34.0,31.4,29.95,SE,137,6.0,14.5,90,0.00,,,0.00,VWS V14.01,2013-01-28 07:32:00,
2013-01-28 02:37:00,34.0,31.4,29.95,SSW,196,4.7,7.8,90,0.00,,,0.00,VWS V14.01,2013-01-28 07:37:00,
2013-01-28 02:43:00,34.2,31.8,29.95,SSE,160,4.7,10.1,91,0.00,,,0.00,VWS V14.01,2013-01-28 07:43:00,
2013-01-28 02:48:00,34.3,32.0,29.95,SSW,193,12.1,20.1,91,0.00,,,0.00,VWS V14.01,2013-01-28 07:48:00,
2013-01-28 02:54:00,34.3,32.0,29.95,South,185,5.4,8.9,91,0.00,,,0.00,VWS V14.01,2013-01-28 07:54:00,
2013-01-28 02:59:00,34.3,32.3,29.95,South,183,5.4,8.9,92,0.00,,,0.00,VWS V14.01,2013-01-28 07:59:00,
2013-01-28 03:04:00,34.3,32.3,29.95,SSW,203,4.7,7.8,92,0.00,,,0.00,VWS V14.01,2013-01-28 08:04:00,
2013-01-28 03:09:00,34.5,32.4,29.95,South,177,6.0,10.1,92,0.00,,,0.00,VWS V14.01,2013-01-28 08:09:00,
2013-01-28 03:14:00,34.5,32.4,29.95,South,180,4.7,15.7,92,0.00,,,0.00,VWS V14.01,2013-01-28 08:14:00,
2013-01-28 03:19:00,34.5,32.4,29.95,SSW,195,4.7,12.3,92,0.00,,,0.00,VWS V14.01,2013-01-28 08:19:00,
2013-01-28 03:24:00,34.5,32.4,29.95,South,188,5.4,10.1,92,0.00,,,0.00,VWS V14.01,2013-01-28 08:24:00,
2013-01-28 03:29:00,34.9,33.1,29.95,SSE,150,4.7,10.1,93,0.00,,,0.00,VWS V14.01,2013-01-28 08:29:00,
2013-01-28 03:36:00,34.7,32.9,29.95,South,188,4.0,10.1,93,0.00,,,0.00,VWS V14.01,2013-01-28 08:36:00,
2013-01-28 03:41:00,34.7,32.9,29.92,South,179,4.0,6.7,93,0.00,,,0.00,VWS V14.01,2013-01-28 08:41:00,
2013-01-28 03:46:00,34.9,33.1,29.92,SE,146,4.7,7.8,93,0.00,,,0.00,VWS V14.01,2013-01-28 08:46:00,
2013-01-28 03:51:00,34.9,33.1,29.92,SSW,196,6.0,10.1,93,0.00,,,0.00,VWS V14.01,2013-01-28 08:51:00,
2013-01-28 03:56:00,34.9,33.3,29.92,SSW,208,7.4,13.4,94,0.00,,,0.00,VWS V14.01,2013-01-28 08:56:00,
2013-01-28 04:02:00,35.2,33.7,29.92,SSW,195,4.7,12.3,94,0.00,,,0.00,VWS V14.01,2013-01-28 09:02:00,
2013-01-28 04:07:00,35.4,33.9,29.92,South,181,5.4,12.3,94,0.00,,,0.00,VWS V14.01,2013-01-28 09:07:00,
2013-01-28 04:13:00,35.4,33.9,29.92,SSE,164,0.0,8.9,94,0.00,,,0.00,VWS V14.01,2013-01-28 09:13:00,
2013-01-28 04:18:00,35.6,34.0,29.92,SSW,198,6.0,15.7,94,0.04,,,0.04,VWS V14.01,2013-01-28 09:18:00,
2013-01-28 04:24:00,35.6,34.0,29.92,South,176,0.0,8.9,94,0.04,,,0.04,VWS V14.01,2013-01-28 09:24:00,
2013-01-28 04:29:00,35.8,34.2,29.92,South,191,9.4,15.7,94,0.04,,,0.04,VWS V14.01,2013-01-28 09:29:00,
2013-01-28 04:34:00,35.8,34.2,29.92,South,186,8.7,14.5,94,0.04,,,0.04,VWS V14.01,2013-01-28 09:34:00,
2013-01-28 04:39:00,36.1,34.6,29.92,SSE,152,5.4,15.7,94,0.04,,,0.04,VWS V14.01,2013-01-28 09:39:00,
2013-01-28 04:44:00,36.1,34.8,29.92,SW,228,8.1,13.4,95,0.04,,,0.04,VWS V14.01,2013-01-28 09:44:00,
2013-01-28 04:50:00,36.3,35.0,29.92,South,178,4.7,15.7,95,0.04,,,0.04,VWS V14.01,2013-01-28 09:50:00,
2013-01-28 04:56:00,36.5,35.2,29.89,SSE,151,5.4,13.4,95,0.04,,,0.04,VWS V14.01,2013-01-28 09:56:00,
2013-01-28 05:02:00,36.7,35.4,29.89,South,184,8.7,14.5,95,0.04,,,0.04,VWS V14.01,2013-01-28 10:02:00,
2013-01-28 05:07:00,37.0,35.7,29.89,SSE,166,4.7,7.8,95,0.04,,,0.04,VWS V14.01,2013-01-28 10:07:00,
2013-01-28 05:12:00,37.0,35.7,29.89,South,170,8.7,19.0,95,0.04,,,0.04,VWS V14.01,2013-01-28 10:12:00,
2013-01-28 05:17:00,37.4,36.1,29.89,South,170,4.7,12.3,95,0.08,,,0.08,VWS V14.01,2013-01-28 10:17:00,
2013-01-28 05:23:00,37.6,36.3,29.89,SSE,147,7.4,12.3,95,0.04,,,0.08,VWS V14.01,2013-01-28 10:23:00,
2013-01-28 05:28:00,38.1,37.1,29.89,South,186,6.0,12.3,96,0.04,,,0.08,VWS V14.01,2013-01-28 10:28:00,
2013-01-28 05:33:00,38.3,37.3,29.89,SE,131,5.4,13.4,96,0.04,,,0.08,VWS V14.01,2013-01-28 10:33:00,
2013-01-28 05:38:00,38.8,37.8,29.89,SSW,196,6.0,13.4,96,0.04,,,0.08,VWS V14.01,2013-01-28 10:38:00,
2013-01-28 05:43:00,39.0,38.0,29.86,SW,219,4.7,20.7,96,0.08,,,0.12,VWS V14.01,2013-01-28 10:43:00,
2013-01-28 05:48:00,39.2,38.2,29.86,South,191,7.4,12.3,96,0.08,,,0.12,VWS V14.01,2013-01-28 10:48:00,
2013-01-28 05:53:00,39.9,38.9,29.86,SSW,210,5.4,15.7,96,0.08,,,0.12,VWS V14.01,2013-01-28 10:53:00,
2013-01-28 05:58:00,39.9,38.9,29.86,WSW,241,4.0,19.0,96,0.08,,,0.12,VWS V14.01,2013-01-28 10:58:00,
2013-01-28 06:03:00,40.1,39.0,29.86,SW,229,5.4,14.5,96,0.08,,,0.12,VWS V14.01,2013-01-28 11:03:00,
2013-01-28 06:08:00,40.3,39.5,29.86,SW,216,4.0,13.4,97,0.08,,,0.12,VWS V14.01,2013-01-28 11:08:00,
2013-01-28 06:14:00,40.5,39.7,29.86,SW,217,6.0,21.8,97,0.12,,,0.16,VWS V14.01,2013-01-28 11:14:00,
2013-01-28 06:19:00,40.1,39.3,29.86,SSW,211,7.4,13.4,97,0.08,,,0.16,VWS V14.01,2013-01-28 11:19:00,
2013-01-28 06:24:00,40.3,39.5,29.86,WSW,240,7.4,14.5,97,0.08,,,0.16,VWS V14.01,2013-01-28 11:24:00,
2013-01-28 06:29:00,40.5,39.7,29.86,SSW,210,4.7,10.1,97,0.12,,,0.20,VWS V14.01,2013-01-28 11:29:00,
2013-01-28 06:34:00,40.5,39.7,29.86,SW,226,6.7,13.4,97,0.12,,,0.20,VWS V14.01,2013-01-28 11:34:00,
2013-01-28 06:40:00,40.6,39.9,29.86,SW,234,8.7,15.7,97,0.12,,,0.20,VWS V14.01,2013-01-28 11:40:00,
2013-01-28 06:46:00,40.8,40.0,29.86,South,187,6.7,12.3,97,0.08,,,0.20,VWS V14.01,2013-01-28 11:46:00,
2013-01-28 06:51:00,40.6,39.9,29.86,South,182,5.4,8.9,97,0.08,,,0.20,VWS V14.01,2013-01-28 11:51:00,
2013-01-28 06:56:00,40.8,40.0,29.86,SW,234,4.7,10.1,97,0.12,,,0.24,VWS V14.01,2013-01-28 11:56:00,
2013-01-28 07:01:00,40.8,40.0,29.86,SSW,193,9.4,24.0,97,0.12,,,0.24,VWS V14.01,2013-01-28 12:01:00,
2013-01-28 07:07:00,41.0,40.2,29.86,South,187,4.0,10.1,97,0.12,,,0.24,VWS V14.01,2013-01-28 12:07:00,
2013-01-28 07:13:00,41.0,40.2,29.86,SW,215,4.0,10.1,97,0.08,,,0.24,VWS V14.01,2013-01-28 12:13:00,
2013-01-28 07:18:00,41.0,40.2,29.86,SSE,152,4.0,14.5,97,0.12,,,0.28,VWS V14.01,2013-01-28 12:18:00,
2013-01-28 07:23:00,41.0,40.2,29.86,SSW,206,6.0,10.1,97,0.12,,,0.28,VWS V14.01,2013-01-28 12:23:00,
2013-01-28 07:28:00,41.0,40.2,29.86,South,179,9.4,15.7,97,0.12,,,0.31,VWS V14.01,2013-01-28 12:28:00,
2013-01-28 07:33:00,41.0,40.2,29.86,SW,231,5.4,19.0,97,0.12,,,0.31,VWS V14.01,2013-01-28 12:33:00,
2013-01-28 07:38:00,41.0,40.2,29.86,SW,225,5.4,15.7,97,0.12,,,0.31,VWS V14.01,2013-01-28 12:38:00,
2013-01-28 07:43:00,41.0,40.2,29.86,SSW,213,7.4,12.3,97,0.12,,,0.31,VWS V14.01,2013-01-28 12:43:00,
2013-01-28 07:48:00,41.0,40.2,29.86,SSW,203,4.0,8.9,97,0.12,,,0.31,VWS V14.01,2013-01-28 12:48:00,
2013-01-28 07:53:00,41.0,40.2,29.86,SSE,160,5.4,15.7,97,0.12,,,0.31,VWS V14.01,2013-01-28 12:53:00,
2013-01-28 07:58:00,41.2,40.4,29.86,South,189,5.4,13.4,97,0.12,,,0.35,VWS V14.01,2013-01-28 12:58:00,
2013-01-28 08:03:00,41.2,40.4,29.86,SW,236,6.0,10.1,97,0.12,,,0.35,VWS V14.01,2013-01-28 13:03:00,
2013-01-28 08:08:00,41.2,40.4,29.86,South,179,4.7,8.9,97,0.12,,,0.35,VWS V14.01,2013-01-28 13:08:00,
2013-01-28 08:13:00,40.6,40.1,29.86,SSW,198,3.4,10.1,98,0.12,,,0.35,VWS V14.01,2013-01-28 13:13:00,
2013-01-28 08:18:00,40.6,40.1,29.86,SW,233,7.4,15.7,98,0.08,,,0.35,VWS V14.01,2013-01-28 13:18:00,
2013-01-28 08:23:00,40.6,40.1,29.86,SSW,202,7.4,12.3,98,0.08,,,0.35,VWS V14.01,2013-01-28 13:23:00,
2013-01-28 08:28:00,41.2,40.7,29.86,South,173,4.0,8.9,98,0.08,,,0.35,VWS V14.01,2013-01-28 13:28:00,
2013-01-28 08:33:00,41.0,40.5,29.86,SW,231,4.0,13.4,98,0.04,,,0.35,VWS V14.01,2013-01-28 13:33:00,
2013-01-28 08:38:00,41.0,40.5,29.86,WSW,244,4.0,13.4,98,0.08,,,0.39,VWS V14.01,2013-01-28 13:38:00,
2013-01-28 08:43:00,41.4,40.8,29.86,SW,233,4.7,12.3,98,0.08,,,0.39,VWS V14.01,2013-01-28 13:43:00,
2013-01-28 08:48:00,41.2,40.7,29.86,SW,225,5.4,8.9,98,0.08,,,0.39,VWS V14.01,2013-01-28 13:48:00,
2013-01-28 08:53:00,41.2,40.7,29.86,SW,227,4.0,15.7,98,0.08,,,0.39,VWS V14.01,2013-01-28 13:53:00,
2013-01-28 08:59:00,41.0,40.5,29.86,SW,224,4.7,10.1,98,0.04,,,0.39,VWS V14.01,2013-01-28 13:59:00,
2013-01-28 09:06:00,41.4,40.8,29.86,South,190,5.4,13.4,98,0.04,,,0.39,VWS V14.01,2013-01-28 14:06:00,
2013-01-28 09:11:00,41.2,40.7,29.89,WSW,246,8.7,14.5,98,0.04,,,0.39,VWS V14.01,2013-01-28 14:11:00,
2013-01-28 09:16:00,41.2,40.7,29.89,SSW,208,6.0,10.1,98,0.04,,,0.39,VWS V14.01,2013-01-28 14:16:00,
2013-01-28 09:21:00,41.4,40.8,29.89,WSW,244,5.4,10.1,98,0.04,,,0.39,VWS V14.01,2013-01-28 14:21:00,
2013-01-28 09:26:00,41.4,40.8,29.89,WSW,239,4.7,8.9,98,0.08,,,0.43,VWS V14.01,2013-01-28 14:26:00,
2013-01-28 09:32:00,41.5,41.0,29.89,SW,229,4.7,8.9,98,0.08,,,0.43,VWS V14.01,2013-01-28 14:32:00,
2013-01-28 09:38:00,41.2,40.7,29.89,SW,214,4.7,7.8,98,0.04,,,0.43,VWS V14.01,2013-01-28 14:38:00,
2013-01-28 09:43:00,41.0,40.5,29.89,SW,235,4.7,10.1,98,0.04,,,0.43,VWS V14.01,2013-01-28 14:43:00,
2013-01-28 09:49:00,41.2,40.7,29.89,WSW,244,7.4,12.3,98,0.04,,,0.43,VWS V14.01,2013-01-28 14:49:00,
2013-01-28 09:54:00,41.2,40.7,29.89,SW,230,3.4,10.1,98,0.04,,,0.43,VWS V14.01,2013-01-28 14:54:00,
2013-01-28 10:01:00,41.2,40.7,29.89,WSW,241,4.7,10.1,98,0.04,,,0.43,VWS V14.01,2013-01-28 15:01:00,
2013-01-28 10:07:00,41.5,41.0,29.89,SW,234,4.7,8.9,98,0.04,,,0.43,VWS V14.01,2013-01-28 15:07:00,
2013-01-28 10:13:00,41.5,41.0,29.89,SW,226,4.0,7.8,98,0.04,,,0.43,VWS V14.01,2013-01-28 15:13:00,
2013-01-28 10:18:00,41.2,40.7,29.89,SSW,210,6.0,10.1,98,0.04,,,0.43,VWS V14.01,2013-01-28 15:18:00,
2013-01-28 10:24:00,41.5,41.0,29.89,SSW,207,4.0,7.8,98,0.04,,,0.43,VWS V14.01,2013-01-28 15:24:00,
2013-01-28 10:29:00,41.7,41.2,29.89,WSW,239,4.0,8.9,98,0.00,,,0.43,VWS V14.01,2013-01-28 15:29:00,
2013-01-28 10:36:00,41.5,41.0,29.89,SSW,210,4.0,7.8,98,0.08,,,0.51,VWS V14.01,2013-01-28 15:36:00,
2013-01-28 10:41:00,41.5,41.0,29.89,WSW,237,4.0,10.1,98,0.08,,,0.51,VWS V14.01,2013-01-28 15:41:00,
2013-01-28 10:46:00,41.7,41.2,29.89,SW,221,4.0,10.1,98,0.08,,,0.51,VWS V14.01,2013-01-28 15:46:00,
2013-01-28 10:51:00,41.7,41.2,29.89,SW,221,4.7,7.8,98,0.08,,,0.51,VWS V14.01,2013-01-28 15:51:00,
2013-01-28 10:56:00,41.9,41.4,29.89,SW,236,3.4,8.9,98,0.08,,,0.51,VWS V14.01,2013-01-28 15:56:00,
2013-01-28 11:01:00,41.9,41.4,29.89,SW,236,4.0,7.8,98,0.08,,,0.51,VWS V14.01,2013-01-28 16:01:00,
2013-01-28 11:07:00,42.1,41.6,29.89,SW,236,4.0,7.8,98,0.08,,,0.51,VWS V14.01,2013-01-28 16:07:00,
2013-01-28 11:12:00,42.3,41.7,29.89,SW,226,0.0,0.0,98,0.08,,,0.51,VWS V14.01,2013-01-28 16:12:00,
2013-01-28 11:17:00,42.1,41.6,29.89,SW,219,3.4,5.6,98,0.08,,,0.51,VWS V14.01,2013-01-28 16:17:00,
2013-01-28 11:22:00,42.1,41.6,29.89,WSW,251,3.4,6.7,98,0.08,,,0.51,VWS V14.01,2013-01-28 16:22:00,
2013-01-28 11:27:00,42.1,41.6,29.89,SSW,211,0.0,6.7,98,0.08,,,0.51,VWS V14.01,2013-01-28 16:27:00,
2013-01-28 11:33:00,41.9,41.4,29.89,SSW,213,4.7,7.8,98,0.08,,,0.51,VWS V14.01,2013-01-28 16:33:00,
2013-01-28 11:38:00,41.7,41.2,29.89,WSW,246,4.7,7.8,98,0.00,,,0.51,VWS V14.01,2013-01-28 16:38:00,
2013-01-28 11:44:00,41.7,41.2,29.89,SW,220,3.4,10.1,98,0.00,,,0.51,VWS V14.01,2013-01-28 16:44:00,
2013-01-28 11:49:00,41.7,41.2,29.89,WSW,239,0.0,8.9,98,0.00,,,0.51,VWS V14.01,2013-01-28 16:49:00,
2013-01-28 11:56:00,41.7,41.2,29.89,WSW,239,4.0,7.8,98,0.00,,,0.51,VWS V14.01,2013-01-28 16:56:00,
2013-01-28 12:02:00,41.7,41.2,29.89,WSW,239,0.0,7.8,98,0.00,,,0.51,VWS V14.01,2013-01-28 17:02:00,
2013-01-28 12:07:00,41.9,41.4,29.89,SW,220,4.0,6.7,98,0.00,,,0.51,VWS V14.01,2013-01-28 17:07:00,
2013-01-28 12:13:00,41.7,41.2,29.89,SSW,204,0.0,0.0,98,0.00,,,0.51,VWS V14.01,2013-01-28 17:13:00,
2013-01-28 12:19:00,41.9,41.4,29.89,SW,235,4.7,7.8,98,0.00,,,0.51,VWS V14.01,2013-01-28 17:19:00,
2013-01-28 12:25:00,41.7,41.2,29.89,SW,235,4.0,6.7,98,0.00,,,0.51,VWS V14.01,2013-01-28 17:25:00,
2013-01-28 12:30:00,41.7,41.2,29.89,SW,235,4.7,8.9,98,0.00,,,0.51,VWS V14.01,2013-01-28 17:30:00,
2013-01-28 12:35:00,41.5,41.0,29.89,SW,235,4.0,6.7,98,0.00,,,0.51,VWS V14.01,2013-01-28 17:35:00,
2013-01-28 12:41:00,41.7,41.2,29.89,SW,235,4.7,7.8,98,0.00,,,0.51,VWS V14.01,2013-01-28 17:41:00,
2013-01-28 12:47:00,41.7,41.2,29.89,SW,235,4.7,8.9,98,0.00,,,0.51,VWS V14.01,2013-01-28 17:47:00,
2013-01-28 12:52:00,41.7,41.2,29.89,SW,235,4.0,8.9,98,0.00,,,0.51,VWS V14.01,2013-01-28 17:52:00,
2013-01-28 12:59:00,41.5,41.0,29.89,SW,235,4.7,8.9,98,0.00,,,0.51,VWS V14.01,2013-01-28 17:59:00,
2013-01-28 13:04:00,41.0,40.5,29.89,SW,235,4.7,7.8,98,0.00,,,0.51,VWS V14.01,2013-01-28 18:04:00,
2013-01-28 13:09:00,40.8,40.3,29.89,SW,235,0.0,5.6,98,0.00,,,0.51,VWS V14.01,2013-01-28 18:09:00,
2013-01-28 13:16:00,41.0,40.5,29.92,SW,235,0.0,0.0,98,0.00,,,0.51,VWS V14.01,2013-01-28 18:16:00,
2013-01-28 13:21:00,41.5,41.0,29.92,West,262,4.0,6.7,98,0.00,,,0.51,VWS V14.01,2013-01-28 18:21:00,
2013-01-28 13:27:00,41.5,41.0,29.89,WSW,256,0.0,0.0,98,0.00,,,0.51,VWS V14.01,2013-01-28 18:27:00,
2013-01-28 13:32:00,41.2,40.7,29.89,WSW,256,0.0,0.0,98,0.00,,,0.51,VWS V14.01,2013-01-28 18:32:00,
2013-01-28 13:37:00,41.0,40.5,29.89,WSW,256,0.0,0.0,98,0.00,,,0.51,VWS V14.01,2013-01-28 18:37:00,
2013-01-28 13:43:00,40.6,40.1,29.92,WSW,256,0.0,0.0,98,0.00,,,0.51,VWS V14.01,2013-01-28 18:43:00,
2013-01-28 13:48:00,40.5,39.9,29.92,WSW,256,0.0,0.0,98,0.00,,,0.51,VWS V14.01,2013-01-28 18:48:00,
2013-01-28 13:54:00,40.3,39.8,29.92,WSW,256,0.0,0.0,98,0.00,,,0.51,VWS V14.01,2013-01-28 18:54:00,
2013-01-28 13:59:00,40.3,39.8,29.92,WSW,256,0.0,0.0,98,0.00,,,0.51,VWS V14.01,2013-01-28 18:59:00,
2013-01-28 14:04:00,40.3,39.8,29.92,WSW,256,0.0,0.0,98,0.00,,,0.51,VWS V14.01,2013-01-28 19:04:00,
2013-01-28 14:09:00,40.1,39.6,29.92,WSW,256,0.0,0.0,98,0.00,,,0.51,VWS V14.01,2013-01-28 19:09:00,
2013-01-28 14:14:00,40.3,39.8,29.92,WSW,256,0.0,0.0,98,0.00,,,0.51,VWS V14.01,2013-01-28 19:14:00,
2013-01-28 14:20:00,40.3,39.8,29.92,WSW,256,0.0,0.0,98,0.00,,,0.51,VWS V14.01,2013-01-28 19:20:00,
2013-01-28 14:25:00,40.5,39.9,29.92,WSW,256,0.0,0.0,98,0.00,,,0.51,VWS V14.01,2013-01-28 19:25:00,
2013-01-28 14:31:00,40.5,39.9,29.92,WSW,256,0.0,0.0,98,0.00,,,0.51,VWS V14.01,2013-01-28 19:31:00,
2013-01-28 14:36:00,40.3,39.8,29.92,WSW,256,0.0,0.0,98,0.00,,,0.51,VWS V14.01,2013-01-28 19:36:00,
2013-01-28 14:41:00,40.1,39.6,29.92,WSW,256,0.0,7.8,98,0.00,,,0.51,VWS V14.01,2013-01-28 19:41:00,
2013-01-28 14:49:00,39.9,39.4,29.92,WSW,256,0.0,0.0,98,0.00,,,0.51,VWS V14.01,2013-01-28 19:49:00,
2013-01-28 14:54:00,39.7,39.2,29.92,WSW,256,0.0,0.0,98,0.00,,,0.51,VWS V14.01,2013-01-28 19:54:00,
2013-01-28 15:01:00,39.7,39.2,29.92,WNW,289,4.0,7.8,98,0.00,,,0.51,VWS V14.01,2013-01-28 20:01:00,
2013-01-28 15:06:00,39.7,39.2,29.92,WNW,287,0.0,0.0,98,0.00,,,0.51,VWS V14.01,2013-01-28 20:06:00,
2013-01-28 15:12:00,39.7,39.2,29.92,WNW,287,4.7,7.8,98,0.00,,,0.51,VWS V14.01,2013-01-28 20:12:00,
2013-01-28 15:18:00,39.4,38.9,29.92,WNW,287,3.4,7.8,98,0.00,,,0.51,VWS V14.01,2013-01-28 20:18:00,
2013-01-28 15:24:00,39.4,38.9,29.92,WNW,288,3.4,10.1,98,0.00,,,0.51,VWS V14.01,2013-01-28 20:24:00,
2013-01-28 15:29:00,39.4,38.9,29.92,WNW,288,0.0,0.0,98,0.00,,,0.51,VWS V14.01,2013-01-28 20:29:00,
2013-01-28 15:35:00,39.4,38.9,29.92,WNW,288,0.0,0.0,98,0.00,,,0.51,VWS V14.01,2013-01-28 20:35:00,
2013-01-28 15:41:00,39.2,38.7,29.92,WNW,288,0.0,0.0,98,0.00,,,0.51,VWS V14.01,2013-01-28 20:41:00,
2013-01-28 15:46:00,39.0,38.5,29.92,WNW,288,5.4,8.9,98,0.00,,,0.51,VWS V14.01,2013-01-28 20:46:00,
2013-01-28 15:51:00,39.0,38.5,29.92,WNW,288,0.0,0.0,98,0.00,,,0.51,VWS V14.01,2013-01-28 20:51:00,
2013-01-28 15:57:00,39.0,38.5,29.95,WNW,288,0.0,0.0,98,0.00,,,0.51,VWS V14.01,2013-01-28 20:57:00,
2013-01-28 16:02:00,38.8,38.3,29.95,WNW,288,0.0,0.0,98,0.00,,,0.51,VWS V14.01,2013-01-28 21:02:00,
2013-01-28 16:07:00,38.8,38.3,29.95,WNW,288,0.0,0.0,98,0.00,,,0.51,VWS V14.01,2013-01-28 21:07:00,
2013-01-28 16:13:00,38.7,38.2,29.95,WNW,288,0.0,0.0,98,0.00,,,0.51,VWS V14.01,2013-01-28 21:13:00,
2013-01-28 16:18:00,38.5,38.0,29.95,WNW,288,0.0,0.0,98,0.00,,,0.51,VWS V14.01,2013-01-28 21:18:00,
2013-01-28 16:23:00,38.5,38.0,29.95,WNW,288,0.0,0.0,98,0.00,,,0.51,VWS V14.01,2013-01-28 21:23:00,
2013-01-28 16:28:00,38.3,37.8,29.95,WNW,288,0.0,0.0,98,0.00,,,0.51,VWS V14.01,2013-01-28 21:28:00,
2013-01-28 16:33:00,38.3,37.8,29.95,WNW,288,0.0,0.0,98,0.00,,,0.51,VWS V14.01,2013-01-28 21:33:00,
2013-01-28 16:39:00,38.1,37.6,29.95,WNW,288,3.4,5.6,98,0.00,,,0.51,VWS V14.01,2013-01-28 21:39:00,
2013-01-28 16:46:00,38.1,37.6,29.95,WNW,288,0.0,0.0,98,0.00,,,0.51,VWS V14.01,2013-01-28 21:46:00,
2013-01-28 16:52:00,37.9,37.4,29.95,WNW,288,0.0,0.0,98,0.00,,,0.51,VWS V14.01,2013-01-28 21:52:00,
2013-01-28 16:58:00,37.8,37.2,29.98,WNW,288,0.0,0.0,98,0.00,,,0.51,VWS V14.01,2013-01-28 21:58:00,
2013-01-28 17:04:00,37.6,37.1,29.98,WNW,288,0.0,0.0,98,0.00,,,0.51,VWS V14.01,2013-01-28 22:04:00,
2013-01-28 17:09:00,37.4,36.9,29.95,WNW,288,0.0,0.0,98,0.00,,,0.51,VWS V14.01,2013-01-28 22:09:00,
2013-01-28 17:14:00,37.4,36.9,29.95,WNW,288,0.0,0.0,98,0.00,,,0.51,VWS V14.01,2013-01-28 22:14:00,
2013-01-28 17:21:00,36.9,36.3,29.95,WNW,288,0.0,0.0,98,0.00,,,0.51,VWS V14.01,2013-01-28 22:21:00,
2013-01-28 17:26:00,36.9,36.3,29.98,WNW,288,0.0,0.0,98,0.00,,,0.51,VWS V14.01,2013-01-28 22:26:00,
2013-01-28 17:32:00,36.5,36.0,29.98,WNW,288,0.0,0.0,98,0.00,,,0.51,VWS V14.01,2013-01-28 22:32:00,
2013-01-28 17:38:00,36.5,36.0,29.98,WNW,288,0.0,0.0,98,0.00,,,0.51,VWS V14.01,2013-01-28 22:38:00,
2013-01-28 17:43:00,36.5,36.0,29.95,WNW,288,0.0,0.0,98,0.00,,,0.51,VWS V14.01,2013-01-28 22:43:00,
2013-01-28 17:49:00,36.5,36.0,29.95,WNW,288,0.0,0.0,98,0.00,,,0.51,VWS V14.01,2013-01-28 22:49:00,
2013-01-28 17:54:00,36.3,35.8,29.95,WNW,288,0.0,0.0,98,0.00,,,0.51,VWS V14.01,2013-01-28 22:54:00,
2013-01-28 18:01:00,36.3,35.8,29.95,WNW,288,0.0,0.0,98,0.00,,,0.51,VWS V14.01,2013-01-28 23:01:00,
2013-01-28 18:06:00,36.1,35.6,29.95,WNW,288,0.0,0.0,98,0.00,,,0.51,VWS V14.01,2013-01-28 23:06:00,
2013-01-28 18:11:00,36.1,35.6,29.95,WNW,288,0.0,0.0,98,0.00,,,0.51,VWS V14.01,2013-01-28 23:11:00,
2013-01-28 18:16:00,36.1,35.6,29.95,WNW,288,0.0,0.0,98,0.00,,,0.51,VWS V14.01,2013-01-28 23:16:00,
2013-01-28 18:21:00,36.1,35.6,29.95,WNW,288,0.0,0.0,98,0.00,,,0.51,VWS V14.01,2013-01-28 23:21:00,
2013-01-28 18:27:00,36.1,35.6,29.98,WNW,288,0.0,0.0,98,0.00,,,0.51,VWS V14.01,2013-01-28 23:27:00,
2013-01-28 18:32:00,36.1,35.6,29.98,WNW,288,0.0,0.0,98,0.00,,,0.51,VWS V14.01,2013-01-28 23:32:00,
2013-01-28 18:38:00,36.1,35.6,29.98,WNW,288,0.0,0.0,98,0.00,,,0.51,VWS V14.01,2013-01-28 23:38:00,
2013-01-28 18:43:00,36.0,35.5,29.98,WNW,288,0.0,0.0,98,0.00,,,0.51,VWS V14.01,2013-01-28 23:43:00,
2013-01-28 18:48:00,35.8,35.3,29.98,WNW,288,0.0,0.0,98,0.00,,,0.51,VWS V14.01,2013-01-28 23:48:00,
2013-01-28 18:54:00,35.8,35.3,29.98,WNW,288,0.0,0.0,98,0.00,,,0.51,VWS V14.01,2013-01-28 23:54:00,
2013-01-28 18:59:00,35.8,35.3,29.98,WNW,288,0.0,0.0,98,0.00,,,0.51,VWS V14.01,2013-01-28 23:59:00,
2013-01-28 19:05:00,35.8,35.3,29.98,WNW,288,0.0,0.0,98,0.00,,,0.51,VWS V14.01,2013-01-29 00:05:00,
2013-01-28 19:11:00,35.8,35.3,29.98,WNW,288,0.0,0.0,98,0.00,,,0.51,VWS V14.01,2013-01-29 00:11:00,
2013-01-28 19:16:00,35.8,35.3,29.98,WNW,288,0.0,0.0,98,0.00,,,0.51,VWS V14.01,2013-01-29 00:16:00,
2013-01-28 19:21:00,35.8,35.3,29.98,WNW,288,0.0,0.0,98,0.00,,,0.51,VWS V14.01,2013-01-29 00:21:00,
2013-01-28 19:27:00,35.8,35.3,29.98,WNW,288,0.0,0.0,98,0.00,,,0.51,VWS V14.01,2013-01-29 00:27:00,
2013-01-28 19:32:00,35.8,35.3,29.98,WNW,288,0.0,0.0,98,0.00,,,0.51,VWS V14.01,2013-01-29 00:32:00,
2013-01-28 19:37:00,35.6,35.1,29.98,WNW,288,0.0,0.0,98,0.00,,,0.51,VWS V14.01,2013-01-29 00:37:00,
2013-01-28 19:43:00,35.6,35.1,29.98,WNW,288,0.0,0.0,98,0.00,,,0.51,VWS V14.01,2013-01-29 00:43:00,
2013-01-28 19:48:00,35.6,35.1,29.98,WNW,288,0.0,0.0,98,0.00,,,0.51,VWS V14.01,2013-01-29 00:48:00,
2013-01-28 19:53:00,35.6,35.1,29.98,WNW,288,0.0,0.0,98,0.00,,,0.51,VWS V14.01,2013-01-29 00:53:00,
2013-01-28 19:58:00,35.8,35.3,29.98,WNW,288,0.0,0.0,98,0.00,,,0.51,VWS V14.01,2013-01-29 00:58:00,
2013-01-28 20:03:00,35.8,35.3,29.98,WNW,288,0.0,0.0,98,0.00,,,0.51,VWS V14.01,2013-01-29 01:03:00,
2013-01-28 20:09:00,35.8,35.3,29.98,WNW,288,0.0,0.0,98,0.00,,,0.51,VWS V14.01,2013-01-29 01:09:00,
2013-01-28 20:14:00,35.6,35.1,29.98,WNW,288,0.0,0.0,98,0.00,,,0.51,VWS V14.01,2013-01-29 01:14:00,
2013-01-28 20:19:00,35.6,35.1,29.98,WNW,288,0.0,0.0,98,0.00,,,0.51,VWS V14.01,2013-01-29 01:19:00,
2013-01-28 20:24:00,35.4,34.9,29.98,WNW,288,0.0,0.0,98,0.00,,,0.51,VWS V14.01,2013-01-29 01:24:00,
2013-01-28 20:31:00,34.9,34.4,29.98,WNW,288,0.0,0.0,98,0.00,,,0.51,VWS V14.01,2013-01-29 01:31:00,
2013-01-28 20:36:00,34.9,34.4,29.98,WNW,288,0.0,0.0,98,0.00,,,0.51,VWS V14.01,2013-01-29 01:36:00,
2013-01-28 20:42:00,35.1,34.5,29.98,WNW,288,0.0,0.0,98,0.00,,,0.51,VWS V14.01,2013-01-29 01:42:00,
2013-01-28 20:47:00,34.9,34.4,29.98,WNW,288,0.0,0.0,98,0.00,,,0.51,VWS V14.01,2013-01-29 01:47:00,
2013-01-28 20:52:00,34.5,34.0,29.98,WNW,288,0.0,0.0,98,0.00,,,0.51,VWS V14.01,2013-01-29 01:52:00,
2013-01-28 20:58:00,34.9,34.4,29.98,WNW,288,0.0,0.0,98,0.00,,,0.51,VWS V14.01,2013-01-29 01:58:00,
2013-01-28 21:03:00,34.7,34.2,29.98,WNW,288,0.0,0.0,98,0.00,,,0.51,VWS V14.01,2013-01-29 02:03:00,
2013-01-28 21:08:00,34.7,34.2,29.98,WNW,288,0.0,0.0,98,0.00,,,0.51,VWS V14.01,2013-01-29 02:08:00,
2013-01-28 21:13:00,34.5,34.0,29.98,WNW,288,0.0,0.0,98,0.00,,,0.51,VWS V14.01,2013-01-29 02:13:00,
2013-01-28 21:19:00,34.5,34.0,29.98,WNW,288,0.0,0.0,98,0.00,,,0.51,VWS V14.01,2013-01-29 02:19:00,
2013-01-28 21:24:00,34.7,34.2,29.98,WNW,288,0.0,0.0,98,0.00,,,0.51,VWS V14.01,2013-01-29 02:24:00,
2013-01-28 21:30:00,34.7,34.2,29.98,WNW,288,0.0,0.0,98,0.00,,,0.51,VWS V14.01,2013-01-29 02:30:00,
2013-01-28 21:35:00,34.9,34.4,29.98,WNW,288,0.0,0.0,98,0.00,,,0.51,VWS V14.01,2013-01-29 02:35:00,
2013-01-28 21:41:00,34.7,34.2,29.98,WNW,288,0.0,0.0,98,0.00,,,0.51,VWS V14.01,2013-01-29 02:41:00,
2013-01-28 21:46:00,34.5,34.0,29.98,WNW,288,0.0,0.0,98,0.00,,,0.51,VWS V14.01,2013-01-29 02:46:00,
2013-01-28 21:51:00,34.7,34.2,29.98,WNW,288,0.0,0.0,98,0.00,,,0.51,VWS V14.01,2013-01-29 02:51:00,
2013-01-28 21:57:00,34.9,34.4,29.98,WNW,288,0.0,0.0,98,0.00,,,0.51,VWS V14.01,2013-01-29 02:57:00,
2013-01-28 22:02:00,35.1,34.5,29.98,WNW,288,0.0,0.0,98,0.00,,,0.51,VWS V14.01,2013-01-29 03:02:00,
2013-01-28 22:08:00,34.7,34.2,29.98,WNW,288,0.0,0.0,98,0.00,,,0.51,VWS V14.01,2013-01-29 03:08:00,
2013-01-28 22:13:00,34.7,34.2,29.98,WNW,288,4.7,7.8,98,0.00,,,0.51,VWS V14.01,2013-01-29 03:13:00,
2013-01-28 22:19:00,34.7,34.2,29.98,WNW,288,4.0,7.8,98,0.00,,,0.51,VWS V14.01,2013-01-29 03:19:00,
2013-01-28 22:24:00,34.9,34.4,29.98,WNW,288,0.0,8.9,98,0.00,,,0.51,VWS V14.01,2013-01-29 03:24:00,
2013-01-28 22:31:00,34.9,34.4,29.98,WNW,288,3.4,6.7,98,0.00,,,0.51,VWS V14.01,2013-01-29 03:31:00,
2013-01-28 22:36:00,35.1,34.5,29.98,WNW,288,0.0,7.8,98,0.00,,,0.51,VWS V14.01,2013-01-29 03:36:00,
2013-01-28 22:41:00,34.9,34.4,29.98,WNW,288,4.7,7.8,98,0.00,,,0.51,VWS V14.01,2013-01-29 03:41:00,
2013-01-28 22:47:00,35.1,34.5,29.98,WNW,288,4.0,6.7,98,0.00,,,0.51,VWS V14.01,2013-01-29 03:47:00,
2013-01-28 22:53:00,34.9,34.4,29.98,WNW,288,4.7,8.9,98,0.00,,,0.51,VWS V14.01,2013-01-29 03:53:00,
2013-01-28 22:58:00,34.9,34.4,29.98,WNW,288,3.4,7.8,98,0.00,,,0.51,VWS V14.01,2013-01-29 03:58:00,
2013-01-28 23:04:00,35.1,34.5,29.98,WNW,288,4.0,7.8,98,0.00,,,0.51,VWS V14.01,2013-01-29 04:04:00,
2013-01-28 23:09:00,35.1,34.5,29.98,WNW,288,0.0,0.0,98,0.00,,,0.51,VWS V14.01,2013-01-29 04:09:00,
2013-01-28 23:16:00,35.1,34.5,29.98,WNW,288,4.7,8.9,98,0.00,,,0.51,VWS V14.01,2013-01-29 04:16:00,
2013-01-28 23:21:00,35.1,34.5,29.98,WNW,288,5.4,8.9,98,0.00,,,0.51,VWS V14.01,2013-01-29 04:21:00,
2013-01-28 23:26:00,35.1,34.5,29.98,ESE,115,4.0,10.1,98,0.00,,,0.51,VWS V14.01,2013-01-29 04:26:00,
2013-01-28 23:32:00,35.1,34.5,29.98,ESE,106,4.7,8.9,98,0.00,,,0.51,VWS V14.01,2013-01-29 04:32:00,
2013-01-28 23:38:00,35.1,34.5,29.98,ESE,110,4.0,10.1,98,0.00,,,0.51,VWS V14.01,2013-01-29 04:38:00,
2013-01-28 23:43:00,35.2,34.7,29.95,ESE,116,5.4,10.1,98,0.00,,,0.51,VWS V14.01,2013-01-29 04:43:00,
2013-01-28 23:48:00,35.2,34.7,29.95,ESE,118,7.4,12.3,98,0.00,,,0.51,VWS V14.01,2013-01-29 04:48:00,
2013-01-28 23:54:00,35.2,34.7,29.95,ESE,114,6.0,12.3,98,0.00,,,0.51,VWS V14.01,2013-01-29 04:54:00,